createdAt,value
2019-03-17T00:00:41.918Z,99248.23
2019-03-17T00:03:15.483Z,99245.80
2019-03-17T00:04:38.737Z,99243.69
2019-03-17T00:06:02.236Z,99236.62
2019-03-17T00:07:25.512Z,99235.84
2019-03-17T00:08:29.701Z,99240.20
2019-03-17T00:09:53.060Z,99235.27
2019-03-17T00:11:15.965Z,99235.17
2019-03-17T00:12:39.374Z,99238.63
2019-03-17T00:15:25.674Z,99225.17
2019-03-17T00:16:29.493Z,99220.73
2019-03-17T00:17:52.611Z,99226.75
2019-03-17T00:18:56.688Z,99226.05
2019-03-17T00:20:19.942Z,99220.24
2019-03-17T00:21:23.783Z,99220.24
2019-03-17T00:22:47.257Z,99210.98
2019-03-17T00:23:51.345Z,99211.16
2019-03-17T00:24:55.248Z,99216.39
2019-03-17T00:25:59.848Z,99214.73
2019-03-17T00:27:03.684Z,99217.53
2019-03-17T00:28:08.152Z,99210.02
2019-03-17T00:29:11.981Z,99212.12
2019-03-17T00:30:16.256Z,99215.13
2019-03-17T00:31:24.198Z,99226.13
2019-03-17T00:32:26.516Z,99215.91
2019-03-17T00:35:32.271Z,99204.78
2019-03-17T00:36:36.098Z,99218.40
2019-03-17T00:37:40.896Z,99217.73
2019-03-17T00:38:45.079Z,99215.20
2019-03-17T00:39:49.103Z,99208.44
2019-03-17T00:40:53.492Z,99208.74
2019-03-17T00:41:57.572Z,99208.13
2019-03-17T00:43:01.973Z,99217.33
2019-03-17T00:44:06.444Z,99204.06
2019-03-17T00:45:11.793Z,99205.50
2019-03-17T00:46:15.815Z,99214.58
2019-03-17T00:47:20.233Z,99203.40
2019-03-17T00:48:24.310Z,99209.77
2019-03-17T00:49:28.130Z,99200.49
2019-03-17T00:50:32.020Z,99208.42
2019-03-17T00:51:36.179Z,99193.06
2019-03-17T00:52:40.847Z,99196.82
2019-03-17T00:53:44.994Z,99199.52
2019-03-17T00:54:49.156Z,99191.10
2019-03-17T00:55:53.303Z,99202.80
2019-03-17T00:56:57.126Z,99182.81
2019-03-17T00:58:01.617Z,99191.23
2019-03-17T00:59:05.772Z,99186.00
2019-03-17T01:00:10.816Z,99187.75
2019-03-17T01:01:15.037Z,99180.59
2019-03-17T01:02:19.116Z,99196.05
2019-03-17T01:03:23.198Z,99194.90
2019-03-17T01:04:27.093Z,99181.16
2019-03-17T01:05:31.572Z,99173.03
2019-03-17T01:06:35.784Z,99185.81
2019-03-17T01:07:40.464Z,99183.86
2019-03-17T01:08:44.855Z,99176.91
2019-03-17T01:09:48.923Z,99179.22
2019-03-17T01:10:53.317Z,99176.52
2019-03-17T01:13:39.525Z,99181.91
2019-03-17T01:15:02.752Z,99178.34
2019-03-17T01:16:25.770Z,99168.70
2019-03-17T01:17:30.034Z,99166.48
2019-03-17T01:18:34.531Z,99163.38
2019-03-17T01:19:38.753Z,99163.47
2019-03-17T01:22:43.801Z,99169.53
2019-03-17T01:24:07.150Z,99167.82
2019-03-17T01:25:11.307Z,99158.94
2019-03-17T01:26:15.147Z,99161.25
2019-03-17T01:27:19.733Z,99171.77
2019-03-17T01:28:42.927Z,99160.68
2019-03-17T01:29:46.756Z,99157.97
2019-03-17T01:30:50.859Z,99150.82
2019-03-17T01:31:55.544Z,99149.85
2019-03-17T01:33:00.136Z,99150.33
2019-03-17T01:34:04.359Z,99147.23
2019-03-17T01:35:27.320Z,99146.37
2019-03-17T01:36:50.938Z,99141.13
2019-03-17T01:37:55.702Z,99132.14
2019-03-17T01:39:00.401Z,99150.81
2019-03-17T01:40:04.551Z,99145.18
2019-03-17T01:41:08.525Z,99137.67
2019-03-17T01:42:12.501Z,99139.67
2019-03-17T01:44:25.916Z,99143.03
2019-03-17T01:45:30.747Z,99143.16
2019-03-17T01:46:34.570Z,99144.50
2019-03-17T01:47:38.836Z,99139.27
2019-03-17T01:49:01.988Z,99141.27
2019-03-17T01:52:08.724Z,99140.78
2019-03-17T01:53:12.715Z,99142.51
2019-03-17T01:54:16.793Z,99137.27
2019-03-17T01:55:21.172Z,99140.45
2019-03-17T01:56:25.348Z,99142.41
2019-03-17T01:57:29.680Z,99138.09
2019-03-17T01:58:33.865Z,99133.64
2019-03-17T01:59:37.760Z,99131.54
2019-03-17T02:00:42.155Z,99128.53
2019-03-17T02:01:46.380Z,99126.78
2019-03-17T02:02:50.215Z,99124.16
2019-03-17T02:03:54.712Z,99128.30
2019-03-17T02:04:58.777Z,99126.67
2019-03-17T02:06:02.924Z,99123.66
2019-03-17T02:07:06.751Z,99117.47
2019-03-17T02:08:10.638Z,99118.55
2019-03-17T02:09:15.046Z,99115.92
2019-03-17T02:10:19.115Z,99119.67
2019-03-17T02:11:23.579Z,99110.78
2019-03-17T02:12:28.147Z,99115.31
2019-03-17T02:13:32.207Z,99110.86
2019-03-17T02:14:36.532Z,99114.63
2019-03-17T02:15:40.427Z,99103.44
2019-03-17T02:16:44.562Z,99104.00
2019-03-17T02:17:48.642Z,99098.28
2019-03-17T02:20:02.827Z,99093.00
2019-03-17T02:21:26.377Z,99091.81
2019-03-17T02:22:49.329Z,99096.34
2019-03-17T02:23:53.699Z,99085.70
2019-03-17T02:24:57.808Z,99088.61
2019-03-17T02:28:03.495Z,99082.41
2019-03-17T02:30:36.435Z,99081.43
2019-03-17T02:32:00.169Z,99079.37
2019-03-17T02:33:23.523Z,99076.75
2019-03-17T02:34:27.683Z,99071.08
2019-03-17T02:35:38.545Z,99069.73
2019-03-17T02:36:38.166Z,99070.69
2019-03-17T02:37:42.241Z,99069.81
2019-03-17T02:38:46.064Z,99060.05
2019-03-17T02:39:49.904Z,99063.14
2019-03-17T02:40:54.032Z,99063.14
2019-03-17T02:41:58.194Z,99066.80
2019-03-17T02:43:02.518Z,99068.15
2019-03-17T02:44:06.664Z,99062.83
2019-03-17T02:45:10.930Z,99071.05
2019-03-17T02:46:15.245Z,99072.88
2019-03-17T02:47:19.409Z,99063.51
2019-03-17T02:48:23.223Z,99060.41
2019-03-17T02:49:27.874Z,99064.06
2019-03-17T02:50:31.790Z,99057.00
2019-03-17T02:51:36.363Z,99057.88
2019-03-17T02:52:40.313Z,99054.42
2019-03-17T02:53:44.448Z,99051.80
2019-03-17T02:54:48.541Z,99055.45
2019-03-17T02:55:52.682Z,99053.80
2019-03-17T02:56:57.091Z,99051.69
2019-03-17T02:58:01.245Z,99045.89
2019-03-17T02:59:05.469Z,99046.84
2019-03-17T03:00:28.915Z,99050.90
2019-03-17T03:01:32.746Z,99048.75
2019-03-17T03:02:37.737Z,99038.13
2019-03-17T03:03:41.929Z,99037.76
2019-03-17T03:04:46.420Z,99041.89
2019-03-17T03:06:09.317Z,99039.27
2019-03-17T03:07:32.657Z,99040.31
2019-03-17T03:08:36.872Z,99033.28
2019-03-17T03:10:00.146Z,99039.72
2019-03-17T03:11:04.526Z,99038.44
2019-03-17T03:12:08.356Z,99034.95
2019-03-17T03:13:31.985Z,99037.26
2019-03-17T03:14:36.064Z,99035.15
2019-03-17T03:15:59.533Z,99032.61
2019-03-17T03:17:22.976Z,99030.39
2019-03-17T03:18:46.000Z,99035.78
2019-03-17T03:21:37.703Z,99032.66
2019-03-17T03:23:01.252Z,99034.08
2019-03-17T03:24:24.269Z,99036.02
2019-03-17T03:25:47.162Z,99029.04
2019-03-17T03:27:10.603Z,99026.90
2019-03-17T03:28:15.008Z,99027.96
2019-03-17T03:29:38.347Z,99026.30
2019-03-17T03:30:42.753Z,99029.95
2019-03-17T03:33:48.226Z,99028.20
2019-03-17T03:35:11.566Z,99025.70
2019-03-17T03:36:34.800Z,99026.06
2019-03-17T03:37:39.322Z,99026.73
2019-03-17T03:38:43.720Z,99026.48
2019-03-17T03:39:47.790Z,99027.44
2019-03-17T03:40:51.700Z,99032.47
2019-03-17T03:41:56.027Z,99029.84
2019-03-17T03:43:00.406Z,99034.38
2019-03-17T03:44:04.723Z,99034.45
2019-03-17T03:45:09.223Z,99037.62
2019-03-17T03:46:13.963Z,99032.70
2019-03-17T03:47:18.039Z,99030.09
2019-03-17T03:48:22.220Z,99015.73
2019-03-17T03:49:26.642Z,99020.17
2019-03-17T03:50:30.511Z,99012.27
2019-03-17T03:51:35.174Z,99013.22
2019-03-17T03:52:39.390Z,99009.66
2019-03-17T03:53:43.474Z,99015.13
2019-03-17T03:54:47.617Z,99013.06
2019-03-17T03:55:51.837Z,99012.77
2019-03-17T03:56:56.067Z,99011.98
2019-03-17T03:58:00.457Z,99015.63
2019-03-17T03:59:16.052Z,99013.00
2019-03-17T04:00:20.287Z,99007.14
2019-03-17T04:01:43.311Z,99006.85
2019-03-17T04:03:06.334Z,99008.09
2019-03-17T04:04:10.850Z,98999.80
2019-03-17T04:05:15.053Z,99010.58
2019-03-17T04:06:38.407Z,99010.66
2019-03-17T04:09:47.108Z,99003.99
2019-03-17T04:11:10.385Z,99007.75
2019-03-17T04:12:14.590Z,99010.17
2019-03-17T04:13:37.964Z,99002.16
2019-03-17T04:15:00.845Z,99009.37
2019-03-17T04:16:04.816Z,99007.63
2019-03-17T04:17:08.655Z,99017.16
2019-03-17T04:18:12.885Z,99007.81
2019-03-17T04:19:16.785Z,99005.98
2019-03-17T04:20:21.310Z,99010.11
2019-03-17T04:21:25.387Z,99004.39
2019-03-17T04:22:48.667Z,99000.75
2019-03-17T04:24:11.611Z,99000.36
2019-03-17T04:27:16.793Z,98992.85
2019-03-17T04:28:21.480Z,98992.61
2019-03-17T04:29:25.617Z,98986.82
2019-03-17T04:30:48.840Z,98988.64
2019-03-17T04:32:11.796Z,98983.44
2019-03-17T04:33:34.679Z,98987.00
2019-03-17T04:36:02.246Z,98987.08
2019-03-17T04:37:06.431Z,98989.93
2019-03-17T04:38:10.893Z,98987.09
2019-03-17T04:39:34.073Z,98982.26
2019-03-17T04:42:02.015Z,98982.80
2019-03-17T04:43:25.045Z,98979.96
2019-03-17T04:44:29.159Z,98981.45
2019-03-17T04:47:15.563Z,98978.70
2019-03-17T04:48:19.707Z,98982.34
2019-03-17T04:49:24.032Z,98981.94
2019-03-17T04:50:28.496Z,98974.27
2019-03-17T04:51:32.581Z,98978.16
2019-03-17T04:52:37.020Z,98975.06
2019-03-17T04:53:41.347Z,98974.73
2019-03-17T04:54:45.667Z,98980.59
2019-03-17T04:55:49.497Z,98980.59
2019-03-17T04:56:53.838Z,98976.55
2019-03-17T04:57:58.460Z,98977.91
2019-03-17T04:59:02.786Z,98980.23
2019-03-17T05:00:07.745Z,98979.73
2019-03-17T05:01:11.818Z,98977.03
2019-03-17T05:02:15.900Z,98975.21
2019-03-17T05:03:20.044Z,98975.21
2019-03-17T05:04:24.359Z,98973.31
2019-03-17T05:05:28.419Z,98968.73
2019-03-17T05:06:32.501Z,98966.19
2019-03-17T05:07:36.689Z,98969.27
2019-03-17T05:08:40.800Z,98975.13
2019-03-17T05:09:44.908Z,98977.36
2019-03-17T05:10:49.115Z,98972.15
2019-03-17T05:11:53.214Z,98969.61
2019-03-17T05:14:39.368Z,98973.25
2019-03-17T05:15:43.515Z,98981.33
2019-03-17T05:16:47.697Z,98977.44
2019-03-17T05:18:10.983Z,98981.58
2019-03-17T05:19:34.177Z,98983.88
2019-03-17T05:20:57.788Z,98980.39
2019-03-17T05:22:02.309Z,98972.37
2019-03-17T05:24:48.195Z,98980.06
2019-03-17T05:25:52.298Z,98969.88
2019-03-17T05:27:15.606Z,98975.73
2019-03-17T05:30:01.504Z,98959.57
2019-03-17T05:31:25.099Z,98965.98
2019-03-17T05:34:17.548Z,98971.44
2019-03-17T05:35:40.568Z,98975.00
2019-03-17T05:36:44.927Z,98971.52
2019-03-17T05:37:49.117Z,98972.45
2019-03-17T05:39:12.141Z,98968.34
2019-03-17T05:40:16.358Z,98976.89
2019-03-17T05:41:20.460Z,98974.20
2019-03-17T05:42:24.561Z,98970.56
2019-03-17T05:43:29.282Z,98972.71
2019-03-17T05:44:33.742Z,98971.03
2019-03-17T05:45:37.809Z,98971.22
2019-03-17T05:46:41.911Z,98972.06
2019-03-17T05:47:45.998Z,98974.93
2019-03-17T05:48:50.163Z,98970.49
2019-03-17T05:49:54.233Z,98972.86
2019-03-17T05:50:58.620Z,98974.05
2019-03-17T05:52:02.589Z,98972.92
2019-03-17T05:53:06.749Z,98972.78
2019-03-17T05:54:10.563Z,98970.41
2019-03-17T05:55:14.384Z,98972.31
2019-03-17T05:56:18.280Z,98970.89
2019-03-17T05:57:22.439Z,98976.27
2019-03-17T05:58:26.517Z,98970.96
2019-03-17T05:59:30.660Z,98978.78
2019-03-17T06:00:34.800Z,98971.36
2019-03-17T06:01:39.110Z,98973.03
2019-03-17T06:02:43.774Z,98971.51
2019-03-17T06:03:47.915Z,98969.69
2019-03-17T06:04:52.234Z,98969.61
2019-03-17T06:05:56.807Z,98968.34
2019-03-17T06:07:00.708Z,98978.56
2019-03-17T06:08:23.984Z,98977.44
2019-03-17T06:09:27.816Z,98981.88
2019-03-17T06:11:55.749Z,98975.22
2019-03-17T06:13:00.268Z,98981.88
2019-03-17T06:16:06.782Z,98982.53
2019-03-17T06:17:30.067Z,98978.30
2019-03-17T06:18:34.216Z,98981.80
2019-03-17T06:19:57.341Z,98988.85
2019-03-17T06:21:20.467Z,98982.66
2019-03-17T06:22:43.784Z,98979.56
2019-03-17T06:24:07.152Z,98982.26
2019-03-17T06:25:30.813Z,98984.55
2019-03-17T06:26:35.331Z,98985.75
2019-03-17T06:27:39.328Z,98987.38
2019-03-17T06:28:43.147Z,98980.02
2019-03-17T06:29:47.225Z,98982.97
2019-03-17T06:30:51.396Z,98993.80
2019-03-17T06:32:14.432Z,98982.28
2019-03-17T06:33:18.889Z,98977.03
2019-03-17T06:34:24.432Z,98972.23
2019-03-17T06:35:29.455Z,98974.73
2019-03-17T06:36:33.520Z,98977.20
2019-03-17T06:37:37.727Z,98967.89
2019-03-17T06:39:01.629Z,98971.19
2019-03-17T06:40:05.719Z,98970.08
2019-03-17T06:41:28.663Z,98977.34
2019-03-17T06:42:51.951Z,98982.10
2019-03-17T06:43:56.453Z,98971.20
2019-03-17T06:45:00.955Z,98983.66
2019-03-17T06:46:45.323Z,98991.59
2019-03-17T06:47:49.490Z,98999.09
2019-03-17T06:48:54.392Z,98995.28
2019-03-17T06:49:58.470Z,98997.98
2019-03-17T06:51:02.944Z,99001.86
2019-03-17T06:52:26.297Z,99004.28
2019-03-17T06:53:56.339Z,99004.48
2019-03-17T06:54:55.505Z,99011.78
2019-03-17T06:56:18.536Z,99005.71
2019-03-17T06:57:41.730Z,98998.41
2019-03-17T06:58:45.893Z,99000.35
2019-03-17T06:59:50.965Z,99005.50
2019-03-17T07:01:14.156Z,99006.17
2019-03-17T07:02:18.600Z,99002.27
2019-03-17T07:03:41.501Z,98999.69
2019-03-17T07:05:04.909Z,98996.23
2019-03-17T07:06:28.189Z,98999.74
2019-03-17T07:07:51.618Z,98997.38
2019-03-17T07:09:14.654Z,98996.75
2019-03-17T07:10:37.947Z,99003.31
2019-03-17T07:12:01.277Z,99006.16
2019-03-17T07:13:25.222Z,98996.42
2019-03-17T07:14:29.559Z,99003.63
2019-03-17T07:15:33.632Z,99000.09
2019-03-17T07:16:37.975Z,99003.36
2019-03-17T07:17:42.099Z,99005.41
2019-03-17T07:18:46.189Z,99012.27
2019-03-17T07:19:50.766Z,99008.68
2019-03-17T07:20:55.290Z,99004.78
2019-03-17T07:21:59.591Z,99014.73
2019-03-17T07:23:03.676Z,99019.33
2019-03-17T07:24:07.728Z,99019.89
2019-03-17T07:25:12.224Z,99021.30
2019-03-17T07:26:16.120Z,99028.14
2019-03-17T07:27:20.106Z,99027.88
2019-03-17T07:28:24.564Z,99030.74
2019-03-17T07:29:28.465Z,99032.38
2019-03-17T07:30:32.367Z,99021.41
2019-03-17T07:31:36.427Z,99027.94
2019-03-17T07:32:41.041Z,99021.85
2019-03-17T07:33:45.457Z,99024.55
2019-03-17T07:34:49.780Z,99032.50
2019-03-17T07:35:53.940Z,99027.92
2019-03-17T07:36:57.760Z,99028.12
2019-03-17T07:38:01.696Z,99032.41
2019-03-17T07:39:12.164Z,99027.16
2019-03-17T07:40:13.561Z,99021.88
2019-03-17T07:41:17.798Z,99030.83
2019-03-17T07:42:21.963Z,99045.45
2019-03-17T07:43:26.852Z,99025.34
2019-03-17T07:44:50.009Z,99038.98
2019-03-17T07:45:54.536Z,99039.61
2019-03-17T07:49:02.092Z,99030.91
2019-03-17T07:50:46.149Z,99032.99
2019-03-17T07:52:09.411Z,99045.94
2019-03-17T07:53:32.842Z,99040.65
2019-03-17T07:54:56.088Z,99046.73
2019-03-17T07:55:59.920Z,99039.28
2019-03-17T07:57:22.888Z,99031.38
2019-03-17T07:59:36.808Z,99029.23
2019-03-17T08:00:41.047Z,99032.96
2019-03-17T08:01:44.880Z,99031.28
2019-03-17T08:03:28.380Z,99034.89
2019-03-17T08:04:41.980Z,99028.02
2019-03-17T08:05:57.321Z,99021.51
2019-03-17T08:07:20.865Z,99025.00
2019-03-17T08:08:25.242Z,99028.88
2019-03-17T08:09:50.366Z,99029.05
2019-03-17T08:10:54.617Z,99021.66
2019-03-17T08:12:18.381Z,99037.55
2019-03-17T08:13:41.829Z,99030.38
2019-03-17T08:14:46.030Z,99031.63
2019-03-17T08:16:09.617Z,99020.41
2019-03-17T08:17:33.521Z,99025.10
2019-03-17T08:18:56.761Z,99027.59
2019-03-17T08:20:00.928Z,99019.44
2019-03-17T08:21:05.167Z,99022.80
2019-03-17T08:22:09.740Z,99010.67
2019-03-17T08:23:33.375Z,99012.21
2019-03-17T08:24:38.203Z,99011.45
2019-03-17T08:26:22.004Z,99013.69
2019-03-17T08:27:26.449Z,99001.95
2019-03-17T08:28:30.783Z,99005.19
2019-03-17T08:29:35.212Z,99005.91
2019-03-17T08:30:52.165Z,99006.28
2019-03-17T08:31:45.801Z,99010.37
2019-03-17T08:32:50.159Z,99007.91
2019-03-17T08:33:55.094Z,98999.36
2019-03-17T08:34:59.638Z,98991.45
2019-03-17T08:36:03.850Z,99005.30
2019-03-17T08:37:08.257Z,99003.82
2019-03-17T08:38:21.254Z,98988.84
2019-03-17T08:39:18.402Z,98992.94
2019-03-17T08:40:22.875Z,98992.06
2019-03-17T08:41:26.933Z,98995.02
2019-03-17T08:42:31.264Z,98998.73
2019-03-17T08:43:35.304Z,99003.83
2019-03-17T08:44:39.150Z,99013.48
2019-03-17T08:45:43.748Z,99005.31
2019-03-17T08:47:07.371Z,99007.54
2019-03-17T08:48:11.856Z,99006.41
2019-03-17T08:49:15.703Z,99008.28
2019-03-17T08:50:38.843Z,99011.98
2019-03-17T08:51:43.355Z,99008.04
2019-03-17T08:54:29.541Z,99002.34
2019-03-17T08:55:33.628Z,99007.41
2019-03-17T08:56:37.826Z,99001.34
2019-03-17T08:58:01.489Z,98996.64
2019-03-17T09:00:34.290Z,99004.03
2019-03-17T09:01:38.734Z,99004.05
2019-03-17T09:03:01.869Z,98998.70
2019-03-17T09:04:05.929Z,99006.89
2019-03-17T09:05:49.399Z,99006.99
2019-03-17T09:07:13.039Z,99002.39
2019-03-17T09:09:59.445Z,99007.70
2019-03-17T09:11:22.478Z,99002.23
2019-03-17T09:12:45.542Z,99009.92
2019-03-17T09:14:09.002Z,99014.88
2019-03-17T09:17:16.168Z,99009.40
2019-03-17T09:18:39.573Z,99008.50
2019-03-17T09:19:43.469Z,99012.47
2019-03-17T09:21:07.082Z,99017.80
2019-03-17T09:22:11.499Z,99011.23
2019-03-17T09:23:15.342Z,99021.23
2019-03-17T09:24:19.821Z,99014.76
2019-03-17T09:25:24.257Z,99022.20
2019-03-17T09:26:28.625Z,99032.45
2019-03-17T09:27:33.030Z,99040.64
2019-03-17T09:28:37.342Z,99045.02
2019-03-17T09:29:41.591Z,99027.87
2019-03-17T09:30:46.458Z,99037.45
2019-03-17T09:31:50.596Z,99037.20
2019-03-17T09:32:54.740Z,99039.09
2019-03-17T09:33:59.568Z,99046.69
2019-03-17T09:35:03.792Z,99052.39
2019-03-17T09:36:07.765Z,99043.37
2019-03-17T09:37:11.916Z,99051.91
2019-03-17T09:38:15.815Z,99046.93
2019-03-17T09:39:19.976Z,99049.95
2019-03-17T09:40:23.882Z,99063.36
2019-03-17T09:41:28.038Z,99049.84
2019-03-17T09:42:32.193Z,99049.09
2019-03-17T09:43:36.772Z,99058.50
2019-03-17T09:44:41.436Z,99055.91
2019-03-17T09:45:46.016Z,99058.53
2019-03-17T09:47:09.341Z,99056.91
2019-03-17T09:48:32.817Z,99053.56
2019-03-17T09:49:56.350Z,99039.72
2019-03-17T09:52:42.542Z,99034.25
2019-03-17T09:54:06.324Z,99030.31
2019-03-17T09:55:29.677Z,99025.47
2019-03-17T09:56:53.340Z,99020.52
2019-03-17T09:59:40.254Z,99025.22
2019-03-17T10:01:03.398Z,99026.20
2019-03-17T10:04:08.413Z,99024.84
2019-03-17T10:05:52.142Z,99030.94
2019-03-17T10:06:56.629Z,99036.39
2019-03-17T10:08:20.063Z,99039.95
2019-03-17T10:09:24.658Z,99045.55
2019-03-17T10:10:48.323Z,99035.64
2019-03-17T10:12:11.674Z,99040.22
2019-03-17T10:14:57.765Z,99052.71
2019-03-17T10:16:21.044Z,99048.74
2019-03-17T10:17:44.754Z,99048.03
2019-03-17T10:20:31.407Z,99049.50
2019-03-17T10:21:35.563Z,99050.00
2019-03-17T10:22:39.929Z,99051.85
2019-03-17T10:23:44.380Z,99051.85
2019-03-17T10:24:48.468Z,99044.67
2019-03-17T10:25:52.713Z,99047.27
2019-03-17T10:26:56.885Z,99045.53
2019-03-17T10:28:00.717Z,99047.27
2019-03-17T10:29:04.937Z,99039.22
2019-03-17T10:30:10.343Z,99043.68
2019-03-17T10:31:14.416Z,99047.39
2019-03-17T10:32:37.573Z,99048.27
2019-03-17T10:34:01.185Z,99047.77
2019-03-17T10:35:44.674Z,99046.41
2019-03-17T10:36:48.807Z,99039.72
2019-03-17T10:37:52.639Z,99034.38
2019-03-17T10:38:57.093Z,99037.11
2019-03-17T10:40:20.520Z,99036.73
2019-03-17T10:41:43.785Z,99041.69
2019-03-17T10:43:07.138Z,99034.88
2019-03-17T10:46:12.516Z,99029.20
2019-03-17T10:47:36.065Z,99021.77
2019-03-17T10:50:22.421Z,99021.88
2019-03-17T10:51:45.303Z,99026.72
2019-03-17T10:52:49.574Z,99023.00
2019-03-17T10:54:14.953Z,99019.02
2019-03-17T10:55:37.989Z,99024.23
2019-03-17T10:57:01.780Z,99016.31
2019-03-17T10:58:25.055Z,99019.53
2019-03-17T10:59:47.947Z,99019.91
2019-03-17T11:01:03.905Z,99018.66
2019-03-17T11:02:08.048Z,99030.55
2019-03-17T11:03:12.193Z,99030.17
2019-03-17T11:04:16.640Z,99030.67
2019-03-17T11:05:20.888Z,99037.86
2019-03-17T11:06:24.971Z,99028.31
2019-03-17T11:07:29.297Z,99037.86
2019-03-17T11:08:34.249Z,99035.13
2019-03-17T11:09:38.407Z,99039.59
2019-03-17T11:11:01.655Z,99033.16
2019-03-17T11:12:24.857Z,99041.43
2019-03-17T11:13:29.294Z,99044.80
2019-03-17T11:14:52.437Z,99049.73
2019-03-17T11:16:15.331Z,99046.51
2019-03-17T11:17:39.094Z,99035.00
2019-03-17T11:19:02.126Z,99038.47
2019-03-17T11:20:25.484Z,99041.30
2019-03-17T11:21:48.935Z,99046.63
2019-03-17T11:22:53.345Z,99040.55
2019-03-17T11:23:57.535Z,99050.10
2019-03-17T11:26:11.690Z,99053.71
2019-03-17T11:27:15.524Z,99048.87
2019-03-17T11:28:38.677Z,99050.61
2019-03-17T11:29:42.761Z,99043.53
2019-03-17T11:31:27.162Z,99040.69
2019-03-17T11:32:31.653Z,99037.96
2019-03-17T11:33:54.805Z,99035.23
2019-03-17T11:35:18.067Z,99039.70
2019-03-17T11:36:21.909Z,99044.16
2019-03-17T11:37:45.589Z,99044.16
2019-03-17T11:38:49.780Z,99032.27
2019-03-17T11:40:13.481Z,99031.28
2019-03-17T11:41:17.493Z,99034.72
2019-03-17T11:42:21.326Z,99034.09
2019-03-17T11:43:44.694Z,99036.95
2019-03-17T11:44:49.309Z,99035.84
2019-03-17T11:45:53.559Z,99023.66
2019-03-17T11:46:57.638Z,99035.72
2019-03-17T11:48:01.816Z,99036.47
2019-03-17T11:49:06.030Z,99025.41
2019-03-17T11:50:10.940Z,99015.25
2019-03-17T11:51:15.186Z,99022.69
2019-03-17T11:52:19.163Z,99025.41
2019-03-17T11:53:23.191Z,99025.41
2019-03-17T11:54:27.704Z,99017.48
2019-03-17T11:55:32.005Z,99023.92
2019-03-17T11:56:36.697Z,99023.55
2019-03-17T11:57:40.973Z,99013.30
2019-03-17T11:58:45.470Z,99016.52
2019-03-17T11:59:49.871Z,99021.59
2019-03-17T12:00:54.416Z,99018.00
2019-03-17T12:01:58.654Z,99022.67
2019-03-17T12:03:02.858Z,99018.34
2019-03-17T12:04:07.343Z,99015.77
2019-03-17T12:05:12.137Z,99019.97
2019-03-17T12:06:16.227Z,99024.55
2019-03-17T12:07:20.422Z,99022.70
2019-03-17T12:08:24.564Z,99016.38
2019-03-17T12:09:29.695Z,99022.45
2019-03-17T12:10:33.749Z,99019.63
2019-03-17T12:11:38.085Z,99026.93
2019-03-17T12:12:42.166Z,99026.19
2019-03-17T12:13:46.395Z,99028.53
2019-03-17T12:14:50.539Z,99032.37
2019-03-17T12:15:54.706Z,99039.83
2019-03-17T12:16:59.184Z,99039.95
2019-03-17T12:18:22.215Z,99045.52
2019-03-17T12:21:27.968Z,99044.67
2019-03-17T12:22:50.938Z,99043.78
2019-03-17T12:24:14.578Z,99046.78
2019-03-17T12:25:38.034Z,99050.11
2019-03-17T12:26:42.551Z,99045.28
2019-03-17T12:28:26.030Z,99050.84
2019-03-17T12:31:12.648Z,99054.84
2019-03-17T12:32:36.436Z,99072.17
2019-03-17T12:33:40.628Z,99062.63
2019-03-17T12:34:45.066Z,99084.14
2019-03-17T12:36:08.520Z,99092.55
2019-03-17T12:37:32.041Z,99099.20
2019-03-17T12:38:55.341Z,99101.27
2019-03-17T12:40:02.803Z,99106.78
2019-03-17T12:41:05.769Z,99135.55
2019-03-17T12:42:10.304Z,99147.34
2019-03-17T12:43:14.628Z,99177.95
2019-03-17T12:44:18.777Z,99180.47
2019-03-17T12:45:23.171Z,99194.64
2019-03-17T12:46:27.761Z,99219.08
2019-03-17T12:47:32.093Z,99224.09
2019-03-17T12:48:36.522Z,99223.67
2019-03-17T12:49:40.348Z,99218.20
2019-03-17T12:50:44.421Z,99258.48
2019-03-17T12:51:48.264Z,99211.80
2019-03-17T12:52:52.669Z,99229.63
2019-03-17T12:53:56.749Z,99230.55
2019-03-17T12:55:01.572Z,99233.66
2019-03-17T12:56:05.481Z,99224.67
2019-03-17T12:57:09.627Z,99234.92
2019-03-17T12:58:14.972Z,99248.73
2019-03-17T12:59:19.164Z,99240.72
2019-03-17T13:00:23.179Z,99250.62
2019-03-17T13:01:27.568Z,99253.62
2019-03-17T13:02:32.140Z,99260.30
2019-03-17T13:03:36.587Z,99269.02
2019-03-17T13:05:00.421Z,99269.02
2019-03-17T13:06:04.743Z,99267.86
2019-03-17T13:07:28.321Z,99277.53
2019-03-17T13:08:51.340Z,99277.63
2019-03-17T13:09:55.845Z,99289.44
2019-03-17T13:11:18.918Z,99287.83
2019-03-17T13:12:42.187Z,99289.77
2019-03-17T13:14:06.887Z,99292.58
2019-03-17T13:18:04.217Z,99291.09
2019-03-17T13:19:08.122Z,99285.28
2019-03-17T13:20:31.480Z,99292.53
2019-03-17T13:21:35.899Z,99306.11
2019-03-17T13:22:40.392Z,99308.13
2019-03-17T13:23:44.474Z,99311.14
2019-03-17T13:26:11.590Z,99308.31
2019-03-17T13:27:15.424Z,99318.97
2019-03-17T13:28:20.165Z,99323.91
2019-03-17T13:29:24.265Z,99329.50
2019-03-17T13:30:47.550Z,99330.06
2019-03-17T13:32:10.861Z,99337.92
2019-03-17T13:33:15.084Z,99341.59
2019-03-17T13:34:19.155Z,99334.34
2019-03-17T13:35:23.479Z,99328.92
2019-03-17T13:36:27.746Z,99326.57
2019-03-17T13:37:31.572Z,99339.06
2019-03-17T13:38:35.910Z,99324.77
2019-03-17T13:39:40.055Z,99320.80
2019-03-17T13:40:44.202Z,99321.94
2019-03-17T13:41:48.429Z,99326.13
2019-03-17T13:42:52.327Z,99316.05
2019-03-17T13:43:56.942Z,99323.60
2019-03-17T13:45:01.110Z,99319.45
2019-03-17T13:46:05.325Z,99321.59
2019-03-17T13:47:09.428Z,99318.58
2019-03-17T13:48:13.741Z,99297.69
2019-03-17T13:49:17.960Z,99318.40
2019-03-17T13:50:22.190Z,99319.15
2019-03-17T13:51:26.098Z,99310.84
2019-03-17T13:52:30.516Z,99321.38
2019-03-17T13:53:34.757Z,99309.48
2019-03-17T13:54:39.196Z,99299.81
2019-03-17T13:57:06.753Z,99297.52
2019-03-17T13:58:30.316Z,99291.30
2019-03-17T13:59:34.452Z,99303.32
2019-03-17T14:00:38.446Z,99307.95
2019-03-17T14:01:42.355Z,99305.84
2019-03-17T14:02:46.952Z,99313.45
2019-03-17T14:04:10.152Z,99314.33
2019-03-17T14:05:53.869Z,99320.53
2019-03-17T14:06:57.784Z,99321.70
2019-03-17T14:08:01.934Z,99316.84
2019-03-17T14:09:46.245Z,99317.80
2019-03-17T14:10:50.677Z,99302.89
2019-03-17T14:11:55.289Z,99295.92
2019-03-17T14:12:59.115Z,99299.03
2019-03-17T14:14:22.056Z,99298.80
2019-03-17T14:15:45.031Z,99296.48
2019-03-17T14:17:08.051Z,99303.85
2019-03-17T14:18:12.025Z,99300.92
2019-03-17T14:19:15.851Z,99296.47
2019-03-17T14:20:20.906Z,99307.00
2019-03-17T14:21:26.183Z,99299.55
2019-03-17T14:22:30.467Z,99280.20
2019-03-17T14:23:34.891Z,99307.53
2019-03-17T14:26:02.667Z,99289.02
2019-03-17T14:27:26.148Z,99278.63
2019-03-17T14:28:29.979Z,99284.70
2019-03-17T14:29:52.930Z,99298.84
2019-03-17T14:32:20.133Z,99309.19
2019-03-17T14:33:43.078Z,99303.66
2019-03-17T14:36:10.447Z,99302.66
2019-03-17T14:37:14.845Z,99306.59
2019-03-17T14:38:19.021Z,99307.36
2019-03-17T14:39:23.067Z,99312.70
2019-03-17T14:40:27.931Z,99314.83
2019-03-17T14:41:32.201Z,99312.11
2019-03-17T14:42:36.737Z,99311.14
2019-03-17T14:43:41.110Z,99298.25
2019-03-17T14:44:45.125Z,99301.25
2019-03-17T14:45:49.237Z,99301.25
2019-03-17T14:46:53.722Z,99307.45
2019-03-17T14:47:57.897Z,99304.36
2019-03-17T14:49:02.802Z,99312.37
2019-03-17T14:50:08.929Z,99310.17
2019-03-17T14:51:12.961Z,99314.11
2019-03-17T14:52:17.613Z,99319.34